createdAt,value
2019-03-05T00:03:51.000Z,23.88
2019-03-05T00:13:51.000Z,23.81
2019-03-05T00:23:51.000Z,23.77
2019-03-05T00:33:51.000Z,23.74
2019-03-05T00:43:51.000Z,23.7
2019-03-05T00:53:52.000Z,23.7
2019-03-05T01:03:51.000Z,23.66
2019-03-05T01:13:51.000Z,23.61
2019-03-05T01:23:51.000Z,23.54
2019-03-05T01:33:51.000Z,23.54
2019-03-05T01:43:51.000Z,23.48
2019-03-05T01:53:51.000Z,23.45
2019-03-05T02:03:52.000Z,23.41
2019-03-05T02:13:51.000Z,23.4
2019-03-05T02:23:51.000Z,23.35
2019-03-05T02:33:51.000Z,23.31
2019-03-05T02:43:51.000Z,23.3
2019-03-05T02:53:51.000Z,23.28
2019-03-05T03:03:51.000Z,23.29
2019-03-05T03:13:51.000Z,23.21
2019-03-05T03:23:51.000Z,23.25
2019-03-05T03:33:51.000Z,23.23
2019-03-05T03:43:51.000Z,23.15
2019-03-05T03:53:51.000Z,23.13
2019-03-05T04:03:51.000Z,23.13
2019-03-05T04:13:51.000Z,23.11
2019-03-05T04:23:51.000Z,23.09
2019-03-05T04:33:51.000Z,23
2019-03-05T04:43:51.000Z,23.04
2019-03-05T04:53:51.000Z,23
2019-03-05T05:03:51.000Z,23.02
2019-03-05T05:13:51.000Z,23.01
2019-03-05T05:23:51.000Z,23.05
2019-03-05T05:33:51.000Z,23.03
2019-03-05T05:43:51.000Z,23.06
2019-03-05T05:53:51.000Z,23.04
2019-03-05T06:03:51.000Z,23.05
2019-03-05T06:13:51.000Z,23.1
2019-03-05T06:23:51.000Z,23.02
2019-03-05T06:33:51.000Z,23.09
2019-03-05T06:43:51.000Z,23.11
2019-03-05T06:53:51.000Z,23.14
2019-03-05T07:03:51.000Z,23.17
2019-03-05T07:13:51.000Z,23.22
2019-03-05T07:23:51.000Z,23.19
2019-03-05T07:33:51.000Z,23.26
2019-03-05T07:43:51.000Z,23.32
2019-03-05T07:53:51.000Z,23.36
2019-03-05T08:03:51.000Z,23.38
2019-03-05T08:13:52.000Z,23.42
2019-03-05T08:23:52.000Z,23.51
2019-03-05T08:33:52.000Z,23.5
2019-03-05T08:43:52.000Z,23.53
2019-03-05T08:53:52.000Z,23.52
2019-03-05T09:03:52.000Z,23.53
2019-03-05T09:13:52.000Z,23.59
2019-03-05T09:23:52.000Z,23.69
2019-03-05T09:33:52.000Z,23.7
2019-03-05T09:43:52.000Z,23.75
2019-03-05T09:53:52.000Z,23.75
2019-03-05T10:03:52.000Z,23.8
2019-03-05T10:13:52.000Z,23.78
2019-03-05T10:23:52.000Z,23.78
2019-03-05T10:33:52.000Z,23.79
2019-03-05T10:43:52.000Z,23.83
2019-03-05T10:53:52.000Z,23.84
2019-03-05T11:03:52.000Z,23.83
2019-03-05T11:13:52.000Z,23.94
2019-03-05T11:23:52.000Z,23.99
2019-03-05T11:33:52.000Z,24.04
2019-03-05T11:43:52.000Z,24.11
2019-03-05T11:53:52.000Z,24.15
2019-03-05T12:03:52.000Z,24.17
2019-03-05T12:13:52.000Z,24.2
2019-03-05T12:23:52.000Z,24.28
2019-03-05T12:33:52.000Z,24.37
2019-03-05T12:43:52.000Z,24.41
2019-03-05T12:53:52.000Z,24.4
2019-03-05T13:03:52.000Z,24.41
2019-03-05T13:13:52.000Z,24.51
2019-03-05T13:23:52.000Z,24.56
2019-03-05T13:33:52.000Z,24.58
2019-03-05T13:43:52.000Z,24.65
2019-03-05T13:53:52.000Z,24.68
2019-03-05T14:03:52.000Z,24.68
2019-03-05T14:13:52.000Z,24.67
2019-03-05T14:23:52.000Z,24.68
2019-03-05T14:33:52.000Z,24.73
2019-03-05T14:43:52.000Z,24.76
2019-03-05T14:53:52.000Z,24.76
2019-03-05T15:03:52.000Z,24.8
2019-03-05T15:13:52.000Z,24.78
2019-03-05T15:23:52.000Z,24.82
2019-03-05T15:33:52.000Z,24.81
2019-03-05T15:43:52.000Z,24.79
2019-03-05T15:53:52.000Z,24.8
2019-03-05T16:03:52.000Z,24.78
2019-03-05T16:13:53.000Z,24.75
2019-03-05T16:23:52.000Z,24.76
2019-03-05T16:33:53.000Z,24.76
2019-03-05T16:43:54.000Z,24.76
2019-03-05T16:53:53.000Z,24.79
2019-03-05T17:03:53.000Z,24.82
2019-03-05T17:13:53.000Z,24.75
2019-03-05T17:23:53.000Z,24.77
2019-03-05T17:33:53.000Z,24.78
2019-03-05T17:43:53.000Z,24.73
2019-03-05T17:53:53.000Z,24.74
2019-03-05T18:03:53.000Z,24.69
2019-03-05T18:13:53.000Z,24.69
2019-03-05T18:23:53.000Z,24.66
2019-03-05T18:33:53.000Z,24.66
2019-03-05T18:43:53.000Z,24.65
2019-03-05T18:53:53.000Z,24.66
2019-03-05T19:03:53.000Z,24.62
2019-03-05T19:13:53.000Z,24.64
2019-03-05T19:23:53.000Z,24.64
2019-03-05T19:33:53.000Z,24.59
2019-03-05T19:43:53.000Z,24.63
2019-03-05T19:53:53.000Z,24.61
2019-03-05T20:03:53.000Z,24.56
2019-03-05T20:13:53.000Z,24.6
2019-03-05T20:23:53.000Z,24.51
2019-03-05T20:43:53.000Z,24.48
2019-03-05T20:53:53.000Z,24.5
2019-03-05T21:03:53.000Z,24.51
2019-03-05T21:13:53.000Z,24.55
2019-03-05T21:23:53.000Z,24.51
2019-03-05T21:33:53.000Z,24.55
2019-03-05T21:43:53.000Z,24.49
2019-03-05T21:53:53.000Z,24.5
2019-03-05T22:03:53.000Z,24.59
2019-03-05T22:13:53.000Z,24.58
2019-03-05T22:23:53.000Z,24.64
2019-03-05T22:33:57.000Z,24.69
2019-03-05T22:43:53.000Z,24.62
2019-03-05T22:53:53.000Z,24.47
2019-03-05T23:03:53.000Z,24.38
2019-03-05T23:13:53.000Z,24.27
2019-03-05T23:23:53.000Z,24.22
2019-03-05T23:33:53.000Z,24.17
2019-03-05T23:43:54.000Z,24.12
2019-03-05T23:53:53.000Z,24.07
